Time;durP1;ratioP1;P1;durP2;ratioP2;P2;SDS_P1;SDS_P2;PMS_P1;PMS_P2;Temp;Humidity;BMP_temperature;BMP_pressure;BME280_temperature;BME280_humidity;BME280_pressure;Samples;Min_cycle;Max_cycle;Signal;HPM_P1;HPM_P2
2021/12/17 00:04:36;;;;;;;17.58;12.07;;;;;;;;;;5097933;28;20044;-53
2021/12/17 00:07:12;;;;;;;18.15;12.18;;;;;;;;;;5099126;28;20071;-50
2021/12/17 00:09:40;;;;;;;18.70;11.60;;;;;;;;;;5100327;28;20047;-49
2021/12/17 00:12:10;;;;;;;21.17;11.68;;;;;;;;;;5098230;27;20056;-53
2021/12/17 00:14:39;;;;;;;18.10;10.90;;;;;;;;;;5096613;28;20039;-52
2021/12/17 00:17:10;;;;;;;20.60;10.50;;;;;;;;;;5098232;28;20535;-54
2021/12/17 00:52:21;;;;;;;12.63;7.55;;;;;;;;;;5071910;28;20032;-53
2021/12/17 00:54:47;;;;;;;10.00;6.75;;;;;;;;;;5065294;28;20077;-52
2021/12/17 00:57:28;;;;;;;11.15;7.85;;;;;;;;;;5074170;28;20041;-50
2021/12/17 00:59:56;;;;;;;11.00;7.60;;;;;;;;;;5078133;28;20060;-55
2021/12/17 01:02:32;;;;;;;14.15;7.50;;;;;;;;;;5080184;28;20024;-54
2021/12/17 01:05:00;;;;;;;11.27;7.35;;;;;;;;;;5080770;28;20077;-54
2021/12/17 01:07:31;;;;;;;14.80;7.13;;;;;;;;;;5077751;28;20040;-49
2021/12/17 01:09:57;;;;;;;13.48;8.05;;;;;;;;;;5076233;28;20052;-52
2021/12/17 01:12:24;;;;;;;11.27;7.43;;;;;;;;;;5071935;28;20043;-47
2021/12/17 01:14:51;;;;;;;11.55;7.68;;;;;;;;;;5074145;28;20032;-50
2021/12/17 01:17:19;;;;;;;13.75;6.57;;;;;;;;;;5072277;28;20802;-50
2021/12/17 01:36:15;;;;;;;13.75;7.32;;;;;;;;;;5048604;28;20043;-51
2021/12/17 01:43:58;;;;;;;21.45;8.27;;;;;;;;;;5047825;28;20155;-49
2021/12/17 01:46:28;;;;;;;13.30;8.38;;;;;;;;;;5044176;28;20047;-49
2021/12/17 01:55:48;;;;;;;16.35;8.73;;;;;;;;;;5047792;28;20041;-52
2021/12/17 02:00:07;;;;;;;11.85;8.15;;;;;;;;;;5077418;28;20047;-49
2021/12/17 02:02:43;;;;;;;12.05;8.48;;;;;;;;;;5100124;27;20047;-46
2021/12/17 02:05:10;;;;;;;14.48;8.35;;;;;;;;;;5098983;28;20077;-53
2021/12/17 02:07:37;;;;;;;11.65;8.13;;;;;;;;;;5094614;28;20040;-48
2021/12/17 02:31:28;;;;;;;12.52;9.32;;;;;;;;;;5103141;27;20035;-52
2021/12/17 02:33:59;;;;;;;12.40;10.23;;;;;;;;;;5085071;28;20032;-52
2021/12/17 02:36:28;;;;;;;15.68;9.70;;;;;;;;;;5093928;28;20058;-50
2021/12/17 02:39:21;;;;;;;13.68;9.75;;;;;;;;;;5101841;27;20118;-47
2021/12/17 02:47:11;;;;;;;14.50;9.52;;;;;;;;;;5105572;27;20028;-48
2021/12/17 02:49:42;;;;;;;15.98;9.40;;;;;;;;;;5096855;28;20689;-52
2021/12/17 02:52:08;;;;;;;11.55;9.02;;;;;;;;;;5099946;28;20042;-48
2021/12/17 02:54:35;;;;;;;21.13;11.30;;;;;;;;;;5093270;28;20522;-50
2021/12/17 02:57:03;;;;;;;14.52;10.18;;;;;;;;;;5106589;27;20047;-53
2021/12/17 02:59:29;;;;;;;16.35;11.35;;;;;;;;;;5099150;28;20031;-51
2021/12/17 03:01:56;;;;;;;12.75;10.40;;;;;;;;;;5097985;27;20028;-49
2021/12/17 03:04:23;;;;;;;16.50;10.38;;;;;;;;;;5097772;28;20020;-51
2021/12/17 03:06:49;;;;;;;17.88;10.38;;;;;;;;;;5094186;28;20415;-50
2021/12/17 03:09:18;;;;;;;15.55;10.63;;;;;;;;;;5088667;28;20035;-52
2021/12/17 03:11:44;;;;;;;16.60;10.60;;;;;;;;;;5095999;27;20031;-49
2021/12/17 03:14:10;;;;;;;14.65;10.40;;;;;;;;;;5097317;28;20024;-47
2021/12/17 03:16:53;;;;;;;14.95;10.32;;;;;;;;;;5099597;27;20022;-51
2021/12/17 03:24:56;;;;;;;13.57;10.30;;;;;;;;;;5080951;28;20059;-50
2021/12/17 03:27:22;;;;;;;12.48;9.75;;;;;;;;;;5081777;28;20052;-51
2021/12/17 03:29:47;;;;;;;15.23;10.25;;;;;;;;;;5079556;28;20547;-50
2021/12/17 03:32:13;;;;;;;13.50;9.90;;;;;;;;;;5079777;28;20028;-47
2021/12/17 03:34:39;;;;;;;15.23;10.57;;;;;;;;;;5076696;28;20148;-46
2021/12/17 03:37:05;;;;;;;15.23;9.85;;;;;;;;;;5081637;28;20016;-50
2021/12/17 03:39:31;;;;;;;13.43;10.40;;;;;;;;;;5078207;28;20059;-51
2021/12/17 03:41:57;;;;;;;13.68;10.32;;;;;;;;;;5077774;28;20082;-50
2021/12/17 03:44:24;;;;;;;14.55;10.63;;;;;;;;;;5078323;28;20036;-46
2021/12/17 03:46:51;;;;;;;14.07;10.65;;;;;;;;;;5078913;28;20049;-51
2021/12/17 03:49:18;;;;;;;15.90;11.55;;;;;;;;;;5075782;28;20058;-50
2021/12/17 03:54:40;;;;;;;15.43;10.15;;;;;;;;;;5070725;28;20515;-45
2021/12/17 03:57:09;;;;;;;15.68;11.30;;;;;;;;;;5086545;28;20144;-45
2021/12/17 03:59:35;;;;;;;12.50;10.05;;;;;;;;;;5082935;28;20047;-46
2021/12/17 04:02:01;;;;;;;13.45;10.85;;;;;;;;;;5096182;28;20035;-45
2021/12/17 04:04:27;;;;;;;14.52;10.93;;;;;;;;;;5098867;28;20024;-50
2021/12/17 04:06:53;;;;;;;14.70;10.27;;;;;;;;;;5105036;28;20040;-51
2021/12/17 04:09:21;;;;;;;13.88;10.10;;;;;;;;;;5098158;28;20028;-51
2021/12/17 04:11:47;;;;;;;14.90;10.02;;;;;;;;;;5103139;28;20476;-51
2021/12/17 04:14:14;;;;;;;13.52;10.43;;;;;;;;;;5098868;28;20032;-46
2021/12/17 04:16:39;;;;;;;12.93;9.45;;;;;;;;;;5095408;28;20024;-50
2021/12/17 04:19:06;;;;;;;13.77;9.38;;;;;;;;;;5096268;28;20046;-48
2021/12/17 04:21:32;;;;;;;12.02;9.40;;;;;;;;;;5099556;28;20484;-52
2021/12/17 04:23:57;;;;;;;16.00;9.30;;;;;;;;;;5095627;28;20031;-50
2021/12/17 04:26:25;;;;;;;9.57;8.57;;;;;;;;;;5101875;28;20048;-45
2021/12/17 04:28:53;;;;;;;10.73;9.07;;;;;;;;;;5096609;28;20094;-46
2021/12/17 04:31:23;;;;;;;11.35;8.82;;;;;;;;;;5095817;28;20547;-46
2021/12/17 04:33:49;;;;;;;9.50;7.90;;;;;;;;;;5092621;28;20032;-47
2021/12/17 04:36:21;;;;;;;12.25;9.07;;;;;;;;;;5096409;28;20510;-46
2021/12/17 04:38:47;;;;;;;10.60;8.00;;;;;;;;;;5093010;28;20032;-48
2021/12/17 04:57:29;;;;;;;8.50;7.60;;;;;;;;;;5095889;27;20038;-46
2021/12/17 04:59:59;;;;;;;9.00;7.35;;;;;;;;;;5084329;28;20036;-50
2021/12/17 05:02:25;;;;;;;11.80;8.27;;;;;;;;;;5100888;28;20032;-46
2021/12/17 05:04:52;;;;;;;9.35;7.43;;;;;;;;;;5101244;28;20039;-47
2021/12/17 05:07:18;;;;;;;14.48;7.57;;;;;;;;;;5098757;28;20064;-48
2021/12/17 05:10:01;;;;;;;13.55;7.35;;;;;;;;;;5096422;28;20070;-48
2021/12/17 05:23:07;;;;;;;11.85;8.13;;;;;;;;;;5099102;28;20020;-52
2021/12/17 05:25:32;;;;;;;9.55;7.32;;;;;;;;;;5100705;28;20439;-52
2021/12/17 05:28:02;;;;;;;9.95;7.38;;;;;;;;;;5098918;27;20035;-51
2021/12/17 05:30:29;;;;;;;9.57;7.63;;;;;;;;;;5094881;28;20032;-51
2021/12/17 05:32:57;;;;;;;12.73;6.97;;;;;;;;;;5095536;28;20143;-51
2021/12/17 05:35:23;;;;;;;8.55;7.03;;;;;;;;;;5102436;27;20027;-53
2021/12/17 05:37:49;;;;;;;8.57;7.07;;;;;;;;;;5103076;28;20064;-51
2021/12/17 05:40:15;;;;;;;8.90;7.10;;;;;;;;;;5098111;27;20066;-51
2021/12/17 05:42:42;;;;;;;9.30;7.75;;;;;;;;;;5093482;28;20500;-51
2021/12/17 05:48:16;;;;;;;11.63;7.38;;;;;;;;;;5071167;28;20532;-54
2021/12/17 05:50:44;;;;;;;8.93;7.13;;;;;;;;;;5072659;28;20055;-48
2021/12/17 05:53:11;;;;;;;8.48;7.57;;;;;;;;;;5075575;28;20048;-50
2021/12/17 05:55:37;;;;;;;11.05;7.15;;;;;;;;;;5071037;28;20035;-53
2021/12/17 05:58:04;;;;;;;11.02;8.38;;;;;;;;;;5073059;28;20036;-49
2021/12/17 06:00:31;;;;;;;9.57;7.78;;;;;;;;;;5071845;28;20032;-53
2021/12/17 06:02:59;;;;;;;13.65;8.45;;;;;;;;;;5071922;28;20024;-53
2021/12/17 06:05:25;;;;;;;9.50;8.25;;;;;;;;;;5076638;28;20108;-50
2021/12/17 06:07:52;;;;;;;15.48;7.82;;;;;;;;;;5072308;28;20374;-53
2021/12/17 06:10:18;;;;;;;8.32;7.00;;;;;;;;;;5078702;28;20032;-51
2021/12/17 06:12:44;;;;;;;7.93;6.38;;;;;;;;;;5072892;28;20047;-54
2021/12/17 06:15:12;;;;;;;9.23;7.18;;;;;;;;;;5073635;28;20032;-51
2021/12/17 06:17:39;;;;;;;8.32;6.88;;;;;;;;;;5071017;28;20111;-49
2021/12/17 06:20:08;;;;;;;10.40;6.50;;;;;;;;;;5093060;28;20499;-52
2021/12/17 06:22:34;;;;;;;7.85;5.85;;;;;;;;;;5098960;27;20039;-50
2021/12/17 06:25:00;;;;;;;7.80;5.72;;;;;;;;;;5095980;28;20104;-48
2021/12/17 06:27:26;;;;;;;7.25;5.60;;;;;;;;;;5100655;28;20043;-53
2021/12/17 06:29:52;;;;;;;7.68;6.35;;;;;;;;;;5080285;28;20038;-50
2021/12/17 06:32:20;;;;;;;7.43;6.03;;;;;;;;;;5102006;27;20028;-48
2021/12/17 06:34:46;;;;;;;8.65;6.60;;;;;;;;;;5096488;28;20036;-52
2021/12/17 06:37:12;;;;;;;14.98;9.65;;;;;;;;;;5096886;28;20020;-53
2021/12/17 06:39:38;;;;;;;14.48;9.93;;;;;;;;;;5097715;27;20031;-53
2021/12/17 06:42:05;;;;;;;18.25;9.88;;;;;;;;;;5096243;28;20032;-52
2021/12/17 06:44:31;;;;;;;13.00;9.75;;;;;;;;;;5107728;27;20034;-52
2021/12/17 06:47:28;;;;;;;14.95;9.45;;;;;;;;;;5094169;28;20036;-50
2021/12/17 06:49:51;;;;;;;12.50;9.30;;;;;;;;;;5096307;28;20055;-51
2021/12/17 07:06:01;;;;;;;13.68;9.68;;;;;;;;;;5064273;28;20167;-50
2021/12/17 07:10:55;;;;;;;20.83;14.35;;;;;;;;;;5063629;28;20051;-53
2021/12/17 07:21:35;;;;;;;42.97;25.52;;;;;;;;;;5064105;28;20128;-51
2021/12/17 07:35:25;;;;;;;44.35;25.73;;;;;;;;;;5065180;28;20134;-54
2021/12/17 07:39:44;;;;;;;24.75;17.00;;;;;;;;;;5074728;28;20042;-54
2021/12/17 07:42:09;;;;;;;14.73;7.57;;;;;;;;;;5098761;27;20038;-51
2021/12/17 07:44:35;;;;;;;10.48;6.97;;;;;;;;;;5098550;28;20033;-49
2021/12/17 07:47:01;;;;;;;11.43;8.60;;;;;;;;;;5095473;28;20027;-54
2021/12/17 07:49:27;;;;;;;9.27;6.60;;;;;;;;;;5094688;28;20030;-54
2021/12/17 07:51:53;;;;;;;12.88;8.35;;;;;;;;;;5111670;27;20031;-53
2021/12/17 07:54:19;;;;;;;20.70;13.63;;;;;;;;;;5097356;28;20043;-49
2021/12/17 07:56:45;;;;;;;30.00;18.33;;;;;;;;;;5101772;27;20036;-51
2021/12/17 07:59:13;;;;;;;29.90;18.88;;;;;;;;;;5107748;28;20464;-50
2021/12/17 08:01:40;;;;;;;33.83;21.85;;;;;;;;;;5095670;28;20023;-55
2021/12/17 08:04:08;;;;;;;33.40;21.65;;;;;;;;;;5093022;28;20575;-50
2021/12/17 08:06:35;;;;;;;30.02;19.63;;;;;;;;;;5095112;28;20057;-51
2021/12/17 08:09:01;;;;;;;30.00;18.92;;;;;;;;;;5096329;28;20092;-48
2021/12/17 08:11:27;;;;;;;30.50;18.40;;;;;;;;;;5098908;28;20027;-45
2021/12/17 08:13:56;;;;;;;19.20;14.50;;;;;;;;;;5094594;28;20040;-50
2021/12/17 08:29:31;;;;;;;11.65;5.47;;;;;;;;;;5079921;28;20036;-50
2021/12/17 08:32:02;;;;;;;5.07;4.47;;;;;;;;;;5073040;28;20081;-53
2021/12/17 08:34:28;;;;;;;6.57;4.53;;;;;;;;;;5090029;28;20040;-52
2021/12/17 08:36:54;;;;;;;6.88;4.50;;;;;;;;;;5086589;28;20436;-49
2021/12/17 08:39:21;;;;;;;7.32;4.07;;;;;;;;;;5078061;28;20389;-46
2021/12/17 08:41:51;;;;;;;5.80;4.90;;;;;;;;;;5086000;28;20043;-48
2021/12/17 08:44:17;;;;;;;6.30;5.10;;;;;;;;;;5089901;28;20394;-52
2021/12/17 08:46:43;;;;;;;9.23;4.80;;;;;;;;;;5083696;28;20101;-50
2021/12/17 08:49:09;;;;;;;7.32;4.60;;;;;;;;;;5089448;28;20056;-49
2021/12/17 08:51:37;;;;;;;6.03;5.13;;;;;;;;;;5087454;28;20038;-52
2021/12/17 08:54:04;;;;;;;7.70;5.25;;;;;;;;;;5087483;28;20044;-47
2021/12/17 08:56:32;;;;;;;5.70;4.55;;;;;;;;;;5077910;28;20031;-52
2021/12/17 08:59:01;;;;;;;10.35;5.63;;;;;;;;;;5081533;28;20085;-48
2021/12/17 09:01:28;;;;;;;8.93;5.75;;;;;;;;;;5084316;28;20038;-49
2021/12/17 09:03:54;;;;;;;14.23;4.88;;;;;;;;;;5085639;28;20035;-52
2021/12/17 09:06:24;;;;;;;20.00;12.20;;;;;;;;;;5077989;28;20086;-51
2021/12/17 09:08:54;;;;;;;19.95;12.05;;;;;;;;;;5096266;28;20048;-54
2021/12/17 09:11:22;;;;;;;21.02;13.10;;;;;;;;;;5089897;28;20047;-49
2021/12/17 09:13:49;;;;;;;17.13;11.68;;;;;;;;;;5088673;28;20039;-48
2021/12/17 09:16:15;;;;;;;15.00;9.60;;;;;;;;;;5083919;28;20024;-52
2021/12/17 09:18:41;;;;;;;21.90;14.45;;;;;;;;;;5089101;28;20035;-50
2021/12/17 09:21:07;;;;;;;26.50;16.13;;;;;;;;;;5081650;28;20056;-48
2021/12/17 09:23:33;;;;;;;21.88;14.90;;;;;;;;;;5089100;28;20040;-51
2021/12/17 09:25:59;;;;;;;24.48;14.50;;;;;;;;;;5095581;28;20048;-45
2021/12/17 09:28:44;;;;;;;20.88;14.38;;;;;;;;;;5098796;27;20046;-47
2021/12/17 09:31:30;;;;;;;26.95;15.35;;;;;;;;;;5104230;27;20084;-45
2021/12/17 09:34:16;;;;;;;27.73;17.55;;;;;;;;;;5101887;27;20699;-48
2021/12/17 09:37:02;;;;;;;29.27;17.27;;;;;;;;;;5088615;28;20448;-47
2021/12/17 09:39:33;;;;;;;32.63;17.80;;;;;;;;;;5101950;27;20054;-45
2021/12/17 09:42:00;;;;;;;30.08;18.35;;;;;;;;;;5102012;28;20040;-45
2021/12/17 09:44:35;;;;;;;39.58;21.10;;;;;;;;;;5093446;28;20032;-45
2021/12/17 09:47:25;;;;;;;30.60;19.17;;;;;;;;;;5096491;28;20188;-52
2021/12/17 09:49:56;;;;;;;20.75;15.13;;;;;;;;;;5095175;28;20123;-48
2021/12/17 09:52:22;;;;;;;22.10;15.40;;;;;;;;;;5104306;28;20088;-53
2021/12/17 09:54:48;;;;;;;27.70;16.40;;;;;;;;;;5096961;27;20028;-52
2021/12/17 09:57:14;;;;;;;30.38;16.85;;;;;;;;;;5089267;28;20516;-51
2021/12/17 09:59:39;;;;;;;26.35;17.65;;;;;;;;;;5101129;27;20392;-48
2021/12/17 10:02:06;;;;;;;31.20;18.27;;;;;;;;;;5094653;28;20028;-50
2021/12/17 10:04:32;;;;;;;30.00;18.75;;;;;;;;;;5091191;28;20115;-52
2021/12/17 10:07:19;;;;;;;29.55;19.35;;;;;;;;;;5091556;28;20085;-49
2021/12/17 10:09:53;;;;;;;28.23;18.88;;;;;;;;;;5093819;28;20039;-50
2021/12/17 10:12:30;;;;;;;36.88;20.80;;;;;;;;;;5089904;28;20545;-48
2021/12/17 10:15:17;;;;;;;40.60;23.42;;;;;;;;;;5097171;27;20051;-51
2021/12/17 10:17:55;;;;;;;43.90;23.77;;;;;;;;;;5097697;28;20119;-53
2021/12/17 10:20:24;;;;;;;38.20;22.15;;;;;;;;;;5096536;27;20023;-49
2021/12/17 10:23:08;;;;;;;31.85;21.75;;;;;;;;;;5095518;28;20039;-51
2021/12/17 10:25:38;;;;;;;31.55;20.35;;;;;;;;;;5092150;27;20067;-53
2021/12/17 10:28:06;;;;;;;32.45;20.30;;;;;;;;;;5092758;28;22610;-53
2021/12/17 10:30:35;;;;;;;31.05;19.80;;;;;;;;;;5100126;27;20034;-50
2021/12/17 10:33:05;;;;;;;24.50;18.83;;;;;;;;;;5095209;28;20031;-52
2021/12/17 10:35:33;;;;;;;30.70;20.02;;;;;;;;;;5100935;27;20037;-52
2021/12/17 10:38:03;;;;;;;25.48;19.30;;;;;;;;;;5093435;27;20544;-49
2021/12/17 10:40:29;;;;;;;32.47;20.55;;;;;;;;;;5098763;27;20435;-45
2021/12/17 10:43:07;;;;;;;31.75;20.20;;;;;;;;;;5094894;28;20089;-47
2021/12/17 10:45:41;;;;;;;44.05;19.75;;;;;;;;;;5097407;27;20035;-48
2021/12/17 10:51:28;;;;;;;30.38;18.83;;;;;;;;;;5098229;28;20035;-45
2021/12/17 10:54:02;;;;;;;24.25;17.70;;;;;;;;;;5095466;27;20069;-45
2021/12/17 10:56:33;;;;;;;26.83;18.15;;;;;;;;;;5097210;28;20028;-50
2021/12/17 10:59:10;;;;;;;25.05;18.83;;;;;;;;;;5098754;28;20035;-47
2021/12/17 11:01:58;;;;;;;33.85;17.95;;;;;;;;;;5092084;28;20397;-45
2021/12/17 11:04:25;;;;;;;26.50;18.05;;;;;;;;;;5088456;28;20515;-47
2021/12/17 11:07:13;;;;;;;34.58;18.80;;;;;;;;;;5091361;28;20059;-47
2021/12/17 11:09:39;;;;;;;30.33;18.33;;;;;;;;;;5093432;27;20564;-48
2021/12/17 11:12:07;;;;;;;37.80;18.08;;;;;;;;;;5087264;28;20063;-46
2021/12/17 11:14:34;;;;;;;41.05;17.40;;;;;;;;;;5097224;28;20043;-48
2021/12/17 11:17:00;;;;;;;27.50;16.58;;;;;;;;;;5096033;28;20038;-48
2021/12/17 11:19:28;;;;;;;26.00;17.27;;;;;;;;;;5094948;27;20031;-47
2021/12/17 11:21:55;;;;;;;22.63;15.77;;;;;;;;;;5088546;28;20039;-50
2021/12/17 11:24:22;;;;;;;26.38;16.92;;;;;;;;;;5098246;27;20036;-48
2021/12/17 11:26:49;;;;;;;29.50;18.35;;;;;;;;;;5093086;28;21710;-50
2021/12/17 11:29:16;;;;;;;25.00;17.38;;;;;;;;;;5091601;28;20043;-49
2021/12/17 11:31:43;;;;;;;32.05;17.80;;;;;;;;;;5095668;27;20473;-49
2021/12/17 11:34:09;;;;;;;27.65;17.65;;;;;;;;;;5093408;27;20111;-50
2021/12/17 11:36:36;;;;;;;24.23;16.50;;;;;;;;;;5092619;28;20468;-50
2021/12/17 11:39:24;;;;;;;28.52;17.85;;;;;;;;;;5098708;27;20045;-47
2021/12/17 11:42:18;;;;;;;31.40;17.20;;;;;;;;;;5091859;28;20541;-47
2021/12/17 11:44:53;;;;;;;24.80;17.27;;;;;;;;;;5090106;28;20104;-51
2021/12/17 11:47:20;;;;;;;32.03;18.67;;;;;;;;;;5097995;27;20046;-52
2021/12/17 11:49:49;;;;;;;30.55;17.30;;;;;;;;;;5092355;27;20149;-48
2021/12/17 11:52:40;;;;;;;25.05;17.08;;;;;;;;;;5093944;28;20039;-47
2021/12/17 11:55:30;;;;;;;31.48;16.38;;;;;;;;;;5084315;28;20116;-49
2021/12/17 11:58:01;;;;;;;37.83;17.02;;;;;;;;;;5092241;28;20040;-45
2021/12/17 12:00:39;;;;;;;29.02;17.13;;;;;;;;;;5089336;28;20042;-49
2021/12/17 12:03:15;;;;;;;30.38;17.55;;;;;;;;;;5088067;28;20044;-49
2021/12/17 12:05:43;;;;;;;25.20;17.08;;;;;;;;;;5089491;28;20075;-46
2021/12/17 12:08:36;;;;;;;27.02;16.42;;;;;;;;;;5093096;28;20050;-45
2021/12/17 12:11:06;;;;;;;37.58;17.98;;;;;;;;;;5088481;28;20032;-51
2021/12/17 12:13:41;;;;;;;31.58;17.35;;;;;;;;;;5092090;28;20044;-51
2021/12/17 12:16:10;;;;;;;29.70;15.80;;;;;;;;;;5092205;28;20028;-49
2021/12/17 12:19:04;;;;;;;33.65;17.17;;;;;;;;;;5087787;28;20108;-45
2021/12/17 12:21:34;;;;;;;22.27;15.43;;;;;;;;;;5086225;28;20118;-45
2021/12/17 12:24:16;;;;;;;23.20;15.18;;;;;;;;;;5092099;28;20052;-52
2021/12/17 12:26:44;;;;;;;22.73;13.88;;;;;;;;;;5087575;28;20044;-48
2021/12/17 12:29:29;;;;;;;23.92;14.30;;;;;;;;;;5093503;28;20084;-52
2021/12/17 12:32:19;;;;;;;20.60;13.70;;;;;;;;;;5091024;28;20062;-48
2021/12/17 12:35:08;;;;;;;26.58;14.43;;;;;;;;;;5095052;28;20035;-52
2021/12/17 12:38:13;;;;;;;25.35;16.25;;;;;;;;;;5079532;28;20041;-51
2021/12/17 12:40:45;;;;;;;27.25;16.85;;;;;;;;;;5087400;28;20060;-50
2021/12/17 12:43:28;;;;;;;29.88;19.30;;;;;;;;;;5086956;28;20046;-53
2021/12/17 12:45:54;;;;;;;36.13;20.15;;;;;;;;;;5088418;28;20035;-48
2021/12/17 12:48:38;;;;;;;32.47;18.85;;;;;;;;;;5085475;28;20047;-47
2021/12/17 12:51:20;;;;;;;28.08;17.30;;;;;;;;;;5092270;28;20039;-51
2021/12/17 12:54:00;;;;;;;28.25;17.95;;;;;;;;;;5087798;28;20109;-46
2021/12/17 12:56:27;;;;;;;31.50;19.33;;;;;;;;;;5092040;28;20096;-46
2021/12/17 12:58:53;;;;;;;31.85;19.90;;;;;;;;;;5091299;28;20638;-47
2021/12/17 13:01:20;;;;;;;30.27;18.52;;;;;;;;;;5092636;28;20028;-48
2021/12/17 13:03:47;;;;;;;39.58;20.95;;;;;;;;;;5093422;28;20088;-47
2021/12/17 13:06:17;;;;;;;28.30;19.20;;;;;;;;;;5086055;28;20035;-48
2021/12/17 13:08:52;;;;;;;31.15;19.92;;;;;;;;;;5088824;28;20042;-48
2021/12/17 13:11:19;;;;;;;28.27;17.23;;;;;;;;;;5091234;28;20667;-49
2021/12/17 13:13:52;;;;;;;26.00;16.38;;;;;;;;;;5090376;28;20039;-48
2021/12/17 13:16:33;;;;;;;29.60;15.75;;;;;;;;;;5093980;28;20529;-47
2021/12/17 13:24:26;;;;;;;27.98;16.40;;;;;;;;;;5089343;28;20499;-47
2021/12/17 13:26:53;;;;;;;38.17;17.60;;;;;;;;;;5089776;28;20043;-49
2021/12/17 13:29:30;;;;;;;32.72;16.73;;;;;;;;;;5103159;27;20682;-48
2021/12/17 13:32:01;;;;;;;25.45;16.17;;;;;;;;;;5092821;28;20113;-49
2021/12/17 13:34:31;;;;;;;33.38;18.30;;;;;;;;;;5077535;28;20059;-50
2021/12/17 13:37:18;;;;;;;32.72;17.67;;;;;;;;;;5092364;27;20101;-50
2021/12/17 13:40:04;;;;;;;33.83;20.75;;;;;;;;;;5091567;28;20085;-49
2021/12/17 13:42:32;;;;;;;29.52;18.15;;;;;;;;;;5099278;27;20032;-51
2021/12/17 13:45:00;;;;;;;31.00;19.42;;;;;;;;;;5093355;28;20069;-48
2021/12/17 13:47:34;;;;;;;35.35;21.00;;;;;;;;;;5091818;28;20047;-50
2021/12/17 13:50:06;;;;;;;30.40;20.30;;;;;;;;;;5093887;27;20028;-46
2021/12/17 13:52:34;;;;;;;36.33;22.27;;;;;;;;;;5099944;27;20816;-50
2021/12/17 13:55:04;;;;;;;40.17;24.23;;;;;;;;;;5095981;28;20042;-45
2021/12/17 13:57:31;;;;;;;37.88;21.92;;;;;;;;;;5100885;28;20028;-46
2021/12/17 14:00:17;;;;;;;33.47;21.70;;;;;;;;;;5090589;28;20127;-48
2021/12/17 14:02:45;;;;;;;37.83;22.63;;;;;;;;;;5096135;27;20036;-48
2021/12/17 14:05:14;;;;;;;33.92;23.55;;;;;;;;;;5092875;28;20389;-48
2021/12/17 14:07:40;;;;;;;32.63;20.95;;;;;;;;;;5098334;27;20093;-48
2021/12/17 14:10:15;;;;;;;39.17;22.13;;;;;;;;;;5085930;28;20102;-47
2021/12/17 14:12:42;;;;;;;37.20;22.20;;;;;;;;;;5090555;28;20029;-48
2021/12/17 14:15:17;;;;;;;38.25;22.30;;;;;;;;;;5094035;28;20024;-45
2021/12/17 14:17:49;;;;;;;35.55;20.90;;;;;;;;;;5095785;27;20112;-50
2021/12/17 14:20:16;;;;;;;35.33;21.67;;;;;;;;;;5093146;28;20389;-48
2021/12/17 14:22:44;;;;;;;34.17;21.90;;;;;;;;;;5099470;28;20093;-47
2021/12/17 14:25:31;;;;;;;35.80;20.13;;;;;;;;;;5095290;28;20668;-49
2021/12/17 14:28:01;;;;;;;40.78;20.63;;;;;;;;;;5100844;27;20054;-47
2021/12/17 14:30:33;;;;;;;38.60;20.08;;;;;;;;;;5092298;28;20062;-48
2021/12/17 14:33:20;;;;;;;39.42;22.88;;;;;;;;;;5090340;28;20439;-49
2021/12/17 14:35:51;;;;;;;47.92;22.45;;;;;;;;;;5094231;28;20059;-45
2021/12/17 14:38:20;;;;;;;38.28;21.75;;;;;;;;;;5097148;28;20111;-49
2021/12/17 14:40:57;;;;;;;33.17;18.50;;;;;;;;;;5094320;28;20115;-46
2021/12/17 14:43:52;;;;;;;39.15;18.88;;;;;;;;;;5102520;27;20408;-45
2021/12/17 14:46:32;;;;;;;32.97;17.23;;;;;;;;;;5094673;28;20393;-45
2021/12/17 14:57:23;;;;;;;30.77;17.15;;;;;;;;;;5096714;28;20915;-45
2021/12/17 15:05:13;;;;;;;35.33;18.35;;;;;;;;;;5094934;28;20032;-49
2021/12/17 15:07:39;;;;;;;44.78;18.98;;;;;;;;;;5097035;28;20076;-46
2021/12/17 15:10:08;;;;;;;48.97;21.05;;;;;;;;;;5104444;27;20488;-46
2021/12/17 15:15:22;;;;;;;30.88;17.40;;;;;;;;;;5091102;28;20035;-46
2021/12/17 15:17:50;;;;;;;51.53;30.75;;;;;;;;;;5099361;27;20432;-48
2021/12/17 15:20:19;;;;;;;52.28;30.48;;;;;;;;;;5098831;28;20354;-52
2021/12/17 15:22:44;;;;;;;51.45;27.23;;;;;;;;;;5098571;27;20024;-48
2021/12/17 15:25:13;;;;;;;39.97;23.58;;;;;;;;;;5094377;28;20047;-48
2021/12/17 15:27:39;;;;;;;33.95;21.85;;;;;;;;;;5096878;28;20433;-48
2021/12/17 15:30:11;;;;;;;37.88;20.23;;;;;;;;;;5095037;28;20024;-47
2021/12/17 15:32:39;;;;;;;38.65;21.77;;;;;;;;;;5106927;27;20035;-48
2021/12/17 15:35:05;;;;;;;42.78;21.25;;;;;;;;;;5093921;28;20435;-51
2021/12/17 15:37:31;;;;;;;48.63;23.00;;;;;;;;;;5094936;28;20064;-50
2021/12/17 15:39:57;;;;;;;55.50;30.70;;;;;;;;;;5094872;28;20848;-47
2021/12/17 15:42:23;;;;;;;60.50;37.17;;;;;;;;;;5094118;27;20040;-50
2021/12/17 15:44:49;;;;;;;52.75;31.48;;;;;;;;;;5092653;28;20447;-47
2021/12/17 15:47:14;;;;;;;50.17;31.65;;;;;;;;;;5098963;27;20392;-51
2021/12/17 15:49:40;;;;;;;53.03;30.80;;;;;;;;;;5093897;28;20020;-50
2021/12/17 15:52:07;;;;;;;76.30;43.75;;;;;;;;;;5099206;28;20028;-46
2021/12/17 15:54:37;;;;;;;64.53;40.00;;;;;;;;;;5099017;27;20106;-46
2021/12/17 15:57:05;;;;;;;61.30;36.25;;;;;;;;;;5099097;28;20031;-51
2021/12/17 15:59:31;;;;;;;58.83;35.95;;;;;;;;;;5104569;28;20019;-45
2021/12/17 16:01:57;;;;;;;49.05;28.58;;;;;;;;;;5096708;28;20028;-47
2021/12/17 16:04:23;;;;;;;42.72;27.38;;;;;;;;;;5096519;28;20120;-47
2021/12/17 16:06:49;;;;;;;36.25;25.52;;;;;;;;;;5100342;28;20039;-45
2021/12/17 16:10:03;;;;;;;34.25;20.95;;;;;;;;;;5092815;28;20408;-48
2021/12/17 16:16:49;;;;;;;34.35;19.35;;;;;;;;;;5101626;28;20044;-45
2021/12/17 16:22:53;;;;;;;24.60;17.58;;;;;;;;;;5093828;28;20067;-51
2021/12/17 16:25:19;;;;;;;29.25;18.33;;;;;;;;;;5099259;28;20081;-47
2021/12/17 16:27:44;;;;;;;31.33;21.23;;;;;;;;;;5099705;28;20662;-46
2021/12/17 16:30:10;;;;;;;33.67;21.48;;;;;;;;;;5099389;28;20123;-53
2021/12/17 16:32:36;;;;;;;33.15;22.42;;;;;;;;;;5099042;28;20046;-52
2021/12/17 16:35:03;;;;;;;40.70;27.55;;;;;;;;;;5108546;28;20019;-47
2021/12/17 16:37:29;;;;;;;40.83;24.08;;;;;;;;;;5096826;28;20028;-52
2021/12/17 16:39:54;;;;;;;38.78;22.63;;;;;;;;;;5096276;28;20396;-50
2021/12/17 16:42:20;;;;;;;38.45;23.40;;;;;;;;;;5099766;28;20104;-48
2021/12/17 16:47:35;;;;;;;36.13;23.83;;;;;;;;;;5104563;28;20035;-46
2021/12/17 16:50:04;;;;;;;42.40;23.65;;;;;;;;;;5096830;28;20047;-52
2021/12/17 16:52:30;;;;;;;35.53;23.50;;;;;;;;;;5106488;28;20044;-53
2021/12/17 16:54:58;;;;;;;45.70;27.23;;;;;;;;;;5098883;28;20065;-47
2021/12/17 16:57:26;;;;;;;82.82;47.65;;;;;;;;;;5099937;28;20022;-48
2021/12/17 16:59:52;;;;;;;59.63;38.30;;;;;;;;;;5104496;27;20024;-47
2021/12/17 17:02:19;;;;;;;52.65;32.85;;;;;;;;;;5100823;28;20024;-49
2021/12/17 17:04:44;;;;;;;50.47;33.63;;;;;;;;;;5097590;28;20036;-46
2021/12/17 17:07:10;;;;;;;44.65;31.58;;;;;;;;;;5098970;27;20039;-47
2021/12/17 17:09:36;;;;;;;46.83;32.05;;;;;;;;;;5100327;28;20023;-53
2021/12/17 17:12:05;;;;;;;43.88;26.90;;;;;;;;;;5100402;28;20562;-53
2021/12/17 17:14:34;;;;;;;130.95;77.70;;;;;;;;;;5097449;28;20028;-50
2021/12/17 17:17:01;;;;;;;65.75;39.67;;;;;;;;;;5099016;28;20039;-50
2021/12/17 17:19:27;;;;;;;62.72;43.33;;;;;;;;;;5103974;28;20114;-49
2021/12/17 17:21:57;;;;;;;76.25;46.72;;;;;;;;;;5105994;27;20052;-50
2021/12/17 17:24:23;;;;;;;67.43;43.95;;;;;;;;;;5101956;28;20031;-50
2021/12/17 17:26:52;;;;;;;65.72;39.65;;;;;;;;;;5095416;28;20064;-50
2021/12/17 17:29:18;;;;;;;67.30;42.53;;;;;;;;;;5100486;27;20119;-50
2021/12/17 17:31:44;;;;;;;57.25;41.47;;;;;;;;;;5100563;27;20115;-53
2021/12/17 17:34:11;;;;;;;65.22;43.70;;;;;;;;;;5100431;27;20106;-53
2021/12/17 17:36:38;;;;;;;71.00;42.67;;;;;;;;;;5101130;27;20032;-53
2021/12/17 17:39:06;;;;;;;72.13;44.40;;;;;;;;;;5095889;28;20020;-52
2021/12/17 17:41:31;;;;;;;79.47;50.28;;;;;;;;;;5105667;27;20435;-52
2021/12/17 17:43:57;;;;;;;68.28;48.10;;;;;;;;;;5098317;28;20096;-48
2021/12/17 17:46:25;;;;;;;74.60;42.50;;;;;;;;;;5099164;28;20039;-51
2021/12/17 17:48:51;;;;;;;64.22;42.45;;;;;;;;;;5096159;28;20036;-48
2021/12/17 17:51:17;;;;;;;56.38;40.00;;;;;;;;;;5110925;27;20032;-51
2021/12/17 17:53:43;;;;;;;56.17;35.65;;;;;;;;;;5096395;28;20039;-50
2021/12/17 17:56:10;;;;;;;57.03;31.88;;;;;;;;;;5100396;27;20032;-50
2021/12/17 17:58:36;;;;;;;56.78;37.38;;;;;;;;;;5102981;28;20383;-51
2021/12/17 18:01:03;;;;;;;50.80;35.67;;;;;;;;;;5100904;28;20015;-52
2021/12/17 18:03:29;;;;;;;45.65;26.20;;;;;;;;;;5102108;27;20372;-52
2021/12/17 18:05:55;;;;;;;50.90;32.58;;;;;;;;;;5096630;27;20093;-50
2021/12/17 18:08:21;;;;;;;53.45;35.22;;;;;;;;;;5099582;28;20058;-52
2021/12/17 18:10:48;;;;;;;42.70;24.35;;;;;;;;;;5098938;28;20028;-51
2021/12/17 18:13:18;;;;;;;36.85;23.40;;;;;;;;;;5102901;27;20118;-51
2021/12/17 18:15:46;;;;;;;37.75;21.58;;;;;;;;;;5098674;28;20100;-50